createdAt,value
2022-11-02T00:03:43.667Z,14.90
2022-11-02T00:13:48.040Z,14.81
2022-11-02T00:23:51.286Z,14.81
2022-11-02T00:33:55.562Z,14.73
2022-11-02T00:43:58.294Z,14.82
2022-11-02T00:54:03.296Z,14.83
2022-11-02T01:04:06.433Z,14.74
2022-11-02T01:14:10.845Z,14.79
2022-11-02T01:24:14.011Z,14.72
2022-11-02T01:34:19.015Z,14.61
2022-11-02T01:44:29.600Z,14.61
2022-11-02T01:54:38.874Z,14.77
2022-11-02T02:04:42.472Z,14.68
2022-11-02T02:14:47.379Z,14.65
2022-11-02T02:24:56.034Z,14.65
2022-11-02T02:35:10.015Z,14.55
2022-11-02T02:45:17.658Z,14.48
2022-11-02T02:55:26.363Z,14.52
2022-11-02T03:05:30.738Z,14.27
2022-11-02T03:15:41.432Z,14.31
2022-11-02T03:25:55.591Z,14.24
2022-11-02T03:36:07.084Z,14.16
2022-11-02T03:46:12.395Z,14.10
2022-11-02T03:56:22.607Z,13.99
2022-11-02T04:06:28.565Z,13.97
2022-11-02T04:16:33.225Z,14.01
2022-11-02T04:26:38.993Z,13.94
2022-11-02T04:36:44.641Z,13.90
2022-11-02T04:46:48.208Z,13.92
2022-11-02T04:56:52.697Z,13.93
2022-11-02T05:07:01.429Z,13.83
2022-11-02T05:17:08.397Z,13.83
2022-11-02T05:27:13.307Z,13.73
2022-11-02T05:37:20.377Z,13.79
2022-11-02T05:47:23.679Z,13.70
2022-11-02T05:57:28.048Z,13.62
2022-11-02T06:07:31.295Z,13.69
2022-11-02T06:17:40.339Z,13.69
2022-11-02T06:27:45.907Z,13.72
2022-11-02T06:37:51.483Z,13.73
2022-11-02T06:47:54.319Z,13.82
2022-11-02T06:57:58.776Z,13.75
2022-11-02T07:08:01.847Z,13.76
2022-11-02T07:18:08.273Z,13.88
2022-11-02T07:28:11.135Z,13.96
2022-11-02T07:38:15.291Z,14.10
2022-11-02T07:48:18.313Z,14.06
2022-11-02T07:58:22.671Z,14.22
2022-11-02T08:08:26.111Z,14.27
2022-11-02T08:18:32.679Z,14.38
2022-11-02T08:28:39.932Z,14.47
2022-11-02T08:38:44.392Z,14.48
2022-11-02T08:48:47.691Z,14.77
2022-11-02T08:58:52.001Z,14.80
2022-11-02T09:08:57.923Z,14.84
2022-11-02T09:19:03.513Z,14.82
2022-11-02T09:29:06.600Z,15.04
2022-11-02T09:39:10.984Z,15.37
2022-11-02T09:49:16.699Z,15.86
2022-11-02T09:59:23.229Z,16.22
2022-11-02T10:09:35.749Z,15.66
2022-11-02T10:19:43.170Z,15.77
2022-11-02T10:29:50.698Z,16.09
2022-11-02T10:40:04.238Z,16.23
2022-11-02T10:50:35.787Z,16.21
2022-11-02T11:00:41.065Z,16.56
2022-11-02T11:10:44.520Z,16.50
2022-11-02T11:20:49.479Z,16.56
2022-11-02T11:31:05.292Z,17.21
2022-11-02T11:41:13.506Z,16.85
2022-11-02T11:51:25.985Z,17.15
2022-11-02T12:01:40.414Z,17.06
2022-11-02T12:11:53.345Z,17.40
2022-11-02T12:22:08.265Z,17.38
2022-11-02T12:32:24.888Z,17.70
2022-11-02T12:42:32.871Z,17.24
2022-11-02T12:52:44.112Z,17.23
2022-11-02T13:02:56.964Z,17.27
2022-11-02T13:13:04.214Z,17.59
2022-11-02T13:23:19.330Z,17.50
2022-11-02T13:33:26.809Z,17.56
2022-11-02T13:43:59.918Z,17.42
2022-11-02T13:54:09.168Z,17.43
2022-11-02T14:04:15.542Z,17.08
2022-11-02T14:14:26.547Z,16.93
2022-11-02T14:25:08.544Z,16.74
2022-11-02T14:35:40.400Z,16.79
2022-11-02T14:46:18.630Z,16.70
2022-11-02T14:56:23.469Z,16.54
2022-11-02T15:06:29.352Z,16.37
2022-11-02T15:16:42.720Z,16.31
2022-11-02T15:26:51.883Z,16.28
2022-11-02T15:36:57.566Z,16.03
2022-11-02T15:47:11.837Z,15.95
2022-11-02T15:57:25.718Z,15.86
2022-11-02T16:07:33.214Z,15.77
2022-11-02T16:17:51.330Z,15.64
2022-11-02T16:27:54.545Z,15.67
2022-11-02T16:37:59.219Z,15.51
2022-11-02T16:48:04.250Z,15.43
2022-11-02T16:58:15.588Z,15.28
2022-11-02T17:08:28.965Z,15.36
2022-11-02T17:18:33.099Z,15.27
2022-11-02T17:28:45.288Z,15.07
2022-11-02T17:38:49.683Z,14.96
2022-11-02T17:48:52.801Z,14.57
2022-11-02T17:58:57.247Z,14.54
2022-11-02T18:09:12.077Z,14.32
2022-11-02T18:19:16.830Z,14.28
2022-11-02T18:29:19.708Z,14.14
2022-11-02T18:39:24.415Z,14.11
2022-11-02T18:49:27.336Z,13.84
2022-11-02T18:59:31.627Z,13.95
2022-11-02T19:09:35.998Z,13.93
2022-11-02T19:19:41.305Z,14.05
2022-11-02T19:29:44.824Z,13.92
2022-11-02T19:39:49.427Z,13.94
2022-11-02T19:49:53.344Z,13.80
2022-11-02T19:59:57.881Z,13.76
2022-11-02T20:10:00.645Z,13.68
2022-11-02T20:20:05.497Z,13.79
2022-11-02T20:30:09.927Z,13.59
2022-11-02T20:40:16.018Z,13.53
2022-11-02T20:50:23.153Z,13.47
2022-11-02T21:00:30.235Z,13.49
2022-11-02T21:10:33.288Z,13.28
2022-11-02T21:20:37.628Z,13.35
2022-11-02T21:30:41.326Z,13.16
2022-11-02T21:40:47.281Z,13.12
2022-11-02T21:50:59.916Z,12.96
2022-11-02T22:01:24.536Z,12.92
2022-11-02T22:11:28.642Z,12.86
2022-11-02T22:21:34.935Z,12.90
2022-11-02T22:31:39.631Z,12.78
2022-11-02T22:41:45.221Z,12.68
2022-11-02T22:51:49.842Z,12.66
2022-11-02T23:01:54.075Z,12.57
2022-11-02T23:11:56.905Z,12.53
2022-11-02T23:22:20.151Z,12.54
2022-11-02T23:32:28.858Z,12.29
2022-11-02T23:42:33.540Z,12.46
2022-11-02T23:52:54.607Z,12.35
